sensor_id;sensor_type;location;lat;lon;timestamp;P1;durP1;ratioP1;P2;durP2;ratioP2
3095;SDS011;1558;42.700;23.360;2023-04-25T00:00:24;0.93;;;0.93;;
3095;SDS011;1558;42.700;23.360;2023-04-25T00:02:52;0.93;;;0.93;;
3095;SDS011;1558;42.700;23.360;2023-04-25T00:05:23;0.90;;;0.90;;
3095;SDS011;1558;42.700;23.360;2023-04-25T00:07:51;1.13;;;1.10;;
3095;SDS011;1558;42.700;23.360;2023-04-25T00:10:20;1.40;;;0.73;;
3095;SDS011;1558;42.700;23.360;2023-04-25T00:12:48;1.00;;;0.90;;
3095;SDS011;1558;42.700;23.360;2023-04-25T00:15:16;1.17;;;1.07;;
3095;SDS011;1558;42.700;23.360;2023-04-25T00:17:44;1.03;;;1.00;;
3095;SDS011;1558;42.700;23.360;2023-04-25T00:20:12;1.07;;;0.93;;
3095;SDS011;1558;42.700;23.360;2023-04-25T00:22:42;0.70;;;0.70;;
3095;SDS011;1558;42.700;23.360;2023-04-25T00:25:10;1.20;;;1.00;;
3095;SDS011;1558;42.700;23.360;2023-04-25T00:27:38;0.97;;;0.97;;
3095;SDS011;1558;42.700;23.360;2023-04-25T00:30:08;1.10;;;0.80;;
3095;SDS011;1558;42.700;23.360;2023-04-25T00:32:37;1.20;;;1.00;;
3095;SDS011;1558;42.700;23.360;2023-04-25T00:35:05;0.80;;;0.80;;
3095;SDS011;1558;42.700;23.360;2023-04-25T00:37:33;1.03;;;1.00;;
3095;SDS011;1558;42.700;23.360;2023-04-25T00:40:02;1.83;;;1.30;;
3095;SDS011;1558;42.700;23.360;2023-04-25T00:42:34;0.90;;;0.90;;
3095;SDS011;1558;42.700;23.360;2023-04-25T00:45:04;0.77;;;0.77;;
3095;SDS011;1558;42.700;23.360;2023-04-25T00:47:35;1.13;;;1.03;;
3095;SDS011;1558;42.700;23.360;2023-04-25T00:50:04;0.70;;;0.70;;
3095;SDS011;1558;42.700;23.360;2023-04-25T00:52:33;1.20;;;1.10;;
3095;SDS011;1558;42.700;23.360;2023-04-25T00:55:02;0.63;;;0.63;;
3095;SDS011;1558;42.700;23.360;2023-04-25T00:57:31;0.80;;;0.80;;
3095;SDS011;1558;42.700;23.360;2023-04-25T00:59:59;0.80;;;0.80;;
3095;SDS011;1558;42.700;23.360;2023-04-25T01:02:28;1.13;;;1.03;;
3095;SDS011;1558;42.700;23.360;2023-04-25T01:04:57;0.60;;;0.60;;
3095;SDS011;1558;42.700;23.360;2023-04-25T01:07:25;0.80;;;0.80;;
3095;SDS011;1558;42.700;23.360;2023-04-25T01:09:53;0.83;;;0.83;;
3095;SDS011;1558;42.700;23.360;2023-04-25T01:12:23;0.80;;;0.77;;
3095;SDS011;1558;42.700;23.360;2023-04-25T01:14:51;0.90;;;0.70;;
3095;SDS011;1558;42.700;23.360;2023-04-25T01:17:19;0.83;;;0.83;;
3095;SDS011;1558;42.700;23.360;2023-04-25T01:19:47;0.70;;;0.70;;
3095;SDS011;1558;42.700;23.360;2023-04-25T01:22:18;1.33;;;0.90;;
3095;SDS011;1558;42.700;23.360;2023-04-25T01:24:47;0.97;;;0.90;;
3095;SDS011;1558;42.700;23.360;2023-04-25T01:27:15;1.10;;;1.00;;
3095;SDS011;1558;42.700;23.360;2023-04-25T01:29:43;0.97;;;0.83;;
3095;SDS011;1558;42.700;23.360;2023-04-25T01:32:12;2.77;;;1.00;;
3095;SDS011;1558;42.700;23.360;2023-04-25T01:34:41;1.50;;;1.13;;
3095;SDS011;1558;42.700;23.360;2023-04-25T01:37:09;1.10;;;1.00;;
3095;SDS011;1558;42.700;23.360;2023-04-25T01:39:38;0.70;;;0.70;;
3095;SDS011;1558;42.700;23.360;2023-04-25T01:42:06;0.70;;;0.70;;
3095;SDS011;1558;42.700;23.360;2023-04-25T01:44:35;1.07;;;0.97;;
3095;SDS011;1558;42.700;23.360;2023-04-25T01:47:03;1.40;;;1.30;;
3095;SDS011;1558;42.700;23.360;2023-04-25T01:49:31;1.23;;;1.13;;
3095;SDS011;1558;42.700;23.360;2023-04-25T01:51:59;1.07;;;0.90;;
3095;SDS011;1558;42.700;23.360;2023-04-25T01:54:27;1.23;;;1.13;;
3095;SDS011;1558;42.700;23.360;2023-04-25T01:56:58;1.17;;;1.07;;
3095;SDS011;1558;42.700;23.360;2023-04-25T01:59:26;0.70;;;0.70;;
3095;SDS011;1558;42.700;23.360;2023-04-25T02:01:54;1.07;;;1.07;;
3095;SDS011;1558;42.700;23.360;2023-04-25T02:04:22;0.90;;;0.90;;
3095;SDS011;1558;42.700;23.360;2023-04-25T02:06:50;1.10;;;1.00;;
3095;SDS011;1558;42.700;23.360;2023-04-25T02:09:18;1.23;;;0.70;;
3095;SDS011;1558;42.700;23.360;2023-04-25T02:11:46;0.70;;;0.70;;
3095;SDS011;1558;42.700;23.360;2023-04-25T02:14:16;1.10;;;1.00;;
3095;SDS011;1558;42.700;23.360;2023-04-25T02:16:44;1.20;;;1.10;;
3095;SDS011;1558;42.700;23.360;2023-04-25T02:19:12;0.80;;;0.80;;
3095;SDS011;1558;42.700;23.360;2023-04-25T02:21:40;0.77;;;0.77;;
3095;SDS011;1558;42.700;23.360;2023-04-25T02:24:08;1.23;;;1.00;;
3095;SDS011;1558;42.700;23.360;2023-04-25T02:26:36;0.90;;;0.90;;
3095;SDS011;1558;42.700;23.360;2023-04-25T02:29:04;1.27;;;1.07;;
3095;SDS011;1558;42.700;23.360;2023-04-25T02:31:34;0.93;;;0.80;;
3095;SDS011;1558;42.700;23.360;2023-04-25T02:34:03;0.87;;;0.87;;
3095;SDS011;1558;42.700;23.360;2023-04-25T02:36:31;0.90;;;0.87;;
3095;SDS011;1558;42.700;23.360;2023-04-25T02:39:00;1.47;;;1.47;;
3095;SDS011;1558;42.700;23.360;2023-04-25T02:41:29;1.53;;;1.40;;
3095;SDS011;1558;42.700;23.360;2023-04-25T02:43:57;0.87;;;0.87;;
3095;SDS011;1558;42.700;23.360;2023-04-25T02:46:25;1.50;;;0.87;;
3095;SDS011;1558;42.700;23.360;2023-04-25T02:49:05;1.10;;;1.00;;
3095;SDS011;1558;42.700;23.360;2023-04-25T02:51:33;1.40;;;1.30;;
3095;SDS011;1558;42.700;23.360;2023-04-25T02:54:01;1.03;;;0.97;;
3095;SDS011;1558;42.700;23.360;2023-04-25T02:56:29;1.10;;;1.00;;
3095;SDS011;1558;42.700;23.360;2023-04-25T02:58:57;1.23;;;1.10;;
3095;SDS011;1558;42.700;23.360;2023-04-25T03:01:25;1.40;;;1.30;;
3095;SDS011;1558;42.700;23.360;2023-04-25T03:03:53;0.90;;;0.90;;
3095;SDS011;1558;42.700;23.360;2023-04-25T03:06:23;1.27;;;0.87;;
3095;SDS011;1558;42.700;23.360;2023-04-25T03:08:51;1.20;;;1.10;;
3095;SDS011;1558;42.700;23.360;2023-04-25T03:11:19;1.60;;;1.03;;
3095;SDS011;1558;42.700;23.360;2023-04-25T03:13:47;1.47;;;1.37;;
3095;SDS011;1558;42.700;23.360;2023-04-25T03:16:16;1.53;;;1.43;;
3095;SDS011;1558;42.700;23.360;2023-04-25T03:18:44;1.00;;;1.00;;
3095;SDS011;1558;42.700;23.360;2023-04-25T03:21:12;1.07;;;1.07;;
3095;SDS011;1558;42.700;23.360;2023-04-25T03:23:41;1.23;;;1.13;;
3095;SDS011;1558;42.700;23.360;2023-04-25T03:26:09;0.90;;;0.90;;
3095;SDS011;1558;42.700;23.360;2023-04-25T03:28:37;2.00;;;1.63;;
3095;SDS011;1558;42.700;23.360;2023-04-25T03:31:06;1.83;;;1.40;;
3095;SDS011;1558;42.700;23.360;2023-04-25T03:33:34;1.83;;;1.73;;
3095;SDS011;1558;42.700;23.360;2023-04-25T03:36:02;1.80;;;1.40;;
3095;SDS011;1558;42.700;23.360;2023-04-25T03:38:30;1.60;;;1.50;;
3095;SDS011;1558;42.700;23.360;2023-04-25T03:41:00;1.77;;;1.27;;
3095;SDS011;1558;42.700;23.360;2023-04-25T03:43:28;2.07;;;1.50;;
3095;SDS011;1558;42.700;23.360;2023-04-25T03:45:57;1.57;;;1.47;;
3095;SDS011;1558;42.700;23.360;2023-04-25T03:48:25;1.80;;;1.70;;
3095;SDS011;1558;42.700;23.360;2023-04-25T03:50:53;2.03;;;1.57;;
3095;SDS011;1558;42.700;23.360;2023-04-25T03:53:22;1.30;;;1.20;;
3095;SDS011;1558;42.700;23.360;2023-04-25T03:55:50;3.63;;;2.23;;
3095;SDS011;1558;42.700;23.360;2023-04-25T03:58:19;1.90;;;1.40;;
3095;SDS011;1558;42.700;23.360;2023-04-25T04:00:49;1.70;;;1.53;;
3095;SDS011;1558;42.700;23.360;2023-04-25T04:03:17;1.67;;;1.57;;
3095;SDS011;1558;42.700;23.360;2023-04-25T04:05:45;1.73;;;1.60;;
3095;SDS011;1558;42.700;23.360;2023-04-25T04:08:13;2.17;;;1.97;;
3095;SDS011;1558;42.700;23.360;2023-04-25T04:10:41;2.50;;;1.80;;
3095;SDS011;1558;42.700;23.360;2023-04-25T04:13:09;1.57;;;1.47;;
3095;SDS011;1558;42.700;23.360;2023-04-25T04:15:39;2.17;;;1.83;;
3095;SDS011;1558;42.700;23.360;2023-04-25T04:18:07;1.87;;;1.73;;
3095;SDS011;1558;42.700;23.360;2023-04-25T04:20:35;1.53;;;1.43;;
3095;SDS011;1558;42.700;23.360;2023-04-25T04:23:03;1.90;;;1.70;;
3095;SDS011;1558;42.700;23.360;2023-04-25T04:25:31;2.67;;;1.57;;
3095;SDS011;1558;42.700;23.360;2023-04-25T04:28:00;1.37;;;1.30;;
3095;SDS011;1558;42.700;23.360;2023-04-25T04:30:28;2.17;;;1.97;;
3095;SDS011;1558;42.700;23.360;2023-04-25T04:32:58;1.83;;;1.73;;
3095;SDS011;1558;42.700;23.360;2023-04-25T04:35:28;2.67;;;1.50;;
3095;SDS011;1558;42.700;23.360;2023-04-25T04:37:56;1.70;;;1.50;;
3095;SDS011;1558;42.700;23.360;2023-04-25T04:40:24;2.40;;;1.93;;
3095;SDS011;1558;42.700;23.360;2023-04-25T04:42:53;2.50;;;2.10;;
3095;SDS011;1558;42.700;23.360;2023-04-25T04:45:22;2.57;;;1.77;;
3095;SDS011;1558;42.700;23.360;2023-04-25T04:47:51;2.63;;;1.97;;
3095;SDS011;1558;42.700;23.360;2023-04-25T04:50:23;2.00;;;1.80;;
3095;SDS011;1558;42.700;23.360;2023-04-25T04:52:51;2.57;;;1.50;;
3095;SDS011;1558;42.700;23.360;2023-04-25T04:55:19;1.97;;;1.83;;
3095;SDS011;1558;42.700;23.360;2023-04-25T04:57:47;1.50;;;1.40;;
3095;SDS011;1558;42.700;23.360;2023-04-25T05:00:15;2.80;;;2.17;;
3095;SDS011;1558;42.700;23.360;2023-04-25T05:02:43;2.13;;;2.00;;
3095;SDS011;1558;42.700;23.360;2023-04-25T05:05:11;3.27;;;1.73;;
3095;SDS011;1558;42.700;23.360;2023-04-25T05:07:41;2.30;;;1.63;;
3095;SDS011;1558;42.700;23.360;2023-04-25T05:10:09;1.93;;;1.80;;
3095;SDS011;1558;42.700;23.360;2023-04-25T05:12:38;1.87;;;1.77;;
3095;SDS011;1558;42.700;23.360;2023-04-25T05:15:06;2.07;;;1.87;;
3095;SDS011;1558;42.700;23.360;2023-04-25T05:17:35;1.40;;;1.30;;
3095;SDS011;1558;42.700;23.360;2023-04-25T05:20:03;1.47;;;1.30;;
3095;SDS011;1558;42.700;23.360;2023-04-25T05:22:33;2.33;;;2.13;;
3095;SDS011;1558;42.700;23.360;2023-04-25T05:25:02;1.60;;;1.50;;
3095;SDS011;1558;42.700;23.360;2023-04-25T05:27:31;1.80;;;1.23;;
3095;SDS011;1558;42.700;23.360;2023-04-25T05:29:59;1.70;;;1.47;;
3095;SDS011;1558;42.700;23.360;2023-04-25T05:32:28;1.33;;;1.23;;
3095;SDS011;1558;42.700;23.360;2023-04-25T05:34:56;1.50;;;1.40;;
3095;SDS011;1558;42.700;23.360;2023-04-25T05:37:24;1.60;;;1.40;;
3095;SDS011;1558;42.700;23.360;2023-04-25T05:39:52;1.83;;;1.30;;
3095;SDS011;1558;42.700;23.360;2023-04-25T05:42:22;1.13;;;1.07;;
3095;SDS011;1558;42.700;23.360;2023-04-25T05:44:50;1.50;;;1.40;;
3095;SDS011;1558;42.700;23.360;2023-04-25T05:47:18;0.80;;;0.80;;
3095;SDS011;1558;42.700;23.360;2023-04-25T05:49:46;1.43;;;1.20;;
3095;SDS011;1558;42.700;23.360;2023-04-25T05:52:14;1.70;;;1.60;;
3095;SDS011;1558;42.700;23.360;2023-04-25T05:54:42;1.10;;;1.00;;
3095;SDS011;1558;42.700;23.360;2023-04-25T05:57:17;1.37;;;1.03;;
3095;SDS011;1558;42.700;23.360;2023-04-25T05:59:48;1.10;;;0.93;;
3095;SDS011;1558;42.700;23.360;2023-04-25T06:02:16;1.93;;;1.37;;
3095;SDS011;1558;42.700;23.360;2023-04-25T06:04:44;1.93;;;1.40;;
3095;SDS011;1558;42.700;23.360;2023-04-25T06:07:13;1.63;;;1.53;;
3095;SDS011;1558;42.700;23.360;2023-04-25T06:09:41;0.83;;;0.83;;
3095;SDS011;1558;42.700;23.360;2023-04-25T06:12:09;1.67;;;1.13;;
3095;SDS011;1558;42.700;23.360;2023-04-25T06:14:37;1.00;;;1.00;;
3095;SDS011;1558;42.700;23.360;2023-04-25T06:17:06;1.70;;;1.40;;
3095;SDS011;1558;42.700;23.360;2023-04-25T06:19:35;1.83;;;1.70;;
3095;SDS011;1558;42.700;23.360;2023-04-25T06:22:03;2.40;;;1.70;;
3095;SDS011;1558;42.700;23.360;2023-04-25T06:24:31;2.47;;;2.27;;
3095;SDS011;1558;42.700;23.360;2023-04-25T06:26:59;2.00;;;1.80;;
3095;SDS011;1558;42.700;23.360;2023-04-25T06:29:29;2.40;;;2.20;;
3095;SDS011;1558;42.700;23.360;2023-04-25T06:31:57;2.67;;;2.00;;
3095;SDS011;1558;42.700;23.360;2023-04-25T06:34:26;1.87;;;1.77;;
3095;SDS011;1558;42.700;23.360;2023-04-25T06:36:54;2.87;;;1.57;;
3095;SDS011;1558;42.700;23.360;2023-04-25T06:39:23;2.10;;;1.87;;
3095;SDS011;1558;42.700;23.360;2023-04-25T06:41:52;2.83;;;2.60;;
3095;SDS011;1558;42.700;23.360;2023-04-25T06:44:20;1.80;;;1.63;;
3095;SDS011;1558;42.700;23.360;2023-04-25T06:46:52;3.03;;;2.30;;
3095;SDS011;1558;42.700;23.360;2023-04-25T06:49:22;1.50;;;1.40;;
3095;SDS011;1558;42.700;23.360;2023-04-25T06:51:53;5.73;;;1.50;;
3095;SDS011;1558;42.700;23.360;2023-04-25T06:54:24;2.47;;;1.60;;
3095;SDS011;1558;42.700;23.360;2023-04-25T06:56:54;2.83;;;1.40;;
3095;SDS011;1558;42.700;23.360;2023-04-25T06:59:22;2.10;;;1.50;;
3095;SDS011;1558;42.700;23.360;2023-04-25T07:01:51;4.07;;;1.20;;
3095;SDS011;1558;42.700;23.360;2023-04-25T07:04:24;2.07;;;1.90;;
3095;SDS011;1558;42.700;23.360;2023-04-25T07:06:54;1.07;;;1.03;;
3095;SDS011;1558;42.700;23.360;2023-04-25T07:09:25;6.13;;;3.83;;
3095;SDS011;1558;42.700;23.360;2023-04-25T07:11:54;11.80;;;10.23;;
3095;SDS011;1558;42.700;23.360;2023-04-25T07:14:24;11.80;;;9.77;;
3095;SDS011;1558;42.700;23.360;2023-04-25T07:16:54;9.60;;;8.53;;
3095;SDS011;1558;42.700;23.360;2023-04-25T07:19:23;9.37;;;8.43;;
3095;SDS011;1558;42.700;23.360;2023-04-25T07:21:54;10.00;;;9.00;;
3095;SDS011;1558;42.700;23.360;2023-04-25T07:24:22;10.43;;;9.17;;
3095;SDS011;1558;42.700;23.360;2023-04-25T07:26:52;10.37;;;8.93;;
3095;SDS011;1558;42.700;23.360;2023-04-25T07:29:23;10.00;;;8.50;;
3095;SDS011;1558;42.700;23.360;2023-04-25T07:31:52;10.23;;;9.13;;
3095;SDS011;1558;42.700;23.360;2023-04-25T07:34:20;9.80;;;8.80;;
3095;SDS011;1558;42.700;23.360;2023-04-25T07:36:48;9.77;;;8.47;;
3095;SDS011;1558;42.700;23.360;2023-04-25T07:39:18;13.03;;;8.60;;
3095;SDS011;1558;42.700;23.360;2023-04-25T07:41:46;11.10;;;8.50;;
3095;SDS011;1558;42.700;23.360;2023-04-25T07:44:14;9.17;;;8.03;;
3095;SDS011;1558;42.700;23.360;2023-04-25T07:46:42;15.70;;;8.87;;
3095;SDS011;1558;42.700;23.360;2023-04-25T07:49:10;15.33;;;9.70;;
3095;SDS011;1558;42.700;23.360;2023-04-25T07:51:38;11.23;;;8.03;;
3095;SDS011;1558;42.700;23.360;2023-04-25T07:54:07;11.80;;;8.57;;
3095;SDS011;1558;42.700;23.360;2023-04-25T07:56:36;11.43;;;8.87;;
3095;SDS011;1558;42.700;23.360;2023-04-25T07:59:17;19.27;;;9.20;;
3095;SDS011;1558;42.700;23.360;2023-04-25T08:01:45;11.03;;;9.77;;
3095;SDS011;1558;42.700;23.360;2023-04-25T08:04:13;13.47;;;9.37;;
3095;SDS011;1558;42.700;23.360;2023-04-25T08:06:42;10.53;;;9.50;;
3095;SDS011;1558;42.700;23.360;2023-04-25T08:09:10;16.13;;;10.27;;
3095;SDS011;1558;42.700;23.360;2023-04-25T08:11:40;17.50;;;10.20;;
3095;SDS011;1558;42.700;23.360;2023-04-25T08:14:09;13.33;;;8.93;;
3095;SDS011;1558;42.700;23.360;2023-04-25T08:16:38;8.88;;;8.10;;
3095;SDS011;1558;42.700;23.360;2023-04-25T08:19:06;9.02;;;8.10;;
3095;SDS011;1558;42.700;23.360;2023-04-25T08:21:34;8.90;;;8.10;;
3095;SDS011;1558;42.700;23.360;2023-04-25T08:24:02;7.63;;;7.03;;
3095;SDS011;1558;42.700;23.360;2023-04-25T08:26:31;7.45;;;6.75;;
3095;SDS011;1558;42.700;23.360;2023-04-25T08:29:00;12.80;;;7.10;;
3095;SDS011;1558;42.700;23.360;2023-04-25T08:31:28;7.85;;;7.15;;
3095;SDS011;1558;42.700;23.360;2023-04-25T08:33:56;8.43;;;7.55;;
3095;SDS011;1558;42.700;23.360;2023-04-25T08:36:25;11.35;;;8.07;;
3095;SDS011;1558;42.700;23.360;2023-04-25T08:39:05;10.38;;;7.63;;
3095;SDS011;1558;42.700;23.360;2023-04-25T08:41:33;8.88;;;6.45;;
3095;SDS011;1558;42.700;23.360;2023-04-25T08:44:05;12.15;;;8.30;;
3095;SDS011;1558;42.700;23.360;2023-04-25T08:46:34;16.55;;;12.65;;
3095;SDS011;1558;42.700;23.360;2023-04-25T08:49:03;13.83;;;12.53;;
3095;SDS011;1558;42.700;23.360;2023-04-25T08:51:32;13.73;;;12.43;;
3095;SDS011;1558;42.700;23.360;2023-04-25T08:54:08;14.83;;;13.23;;
3095;SDS011;1558;42.700;23.360;2023-04-25T08:56:57;14.37;;;13.03;;
3095;SDS011;1558;42.700;23.360;2023-04-25T08:59:29;14.17;;;12.73;;
3095;SDS011;1558;42.700;23.360;2023-04-25T09:01:58;14.47;;;12.67;;
3095;SDS011;1558;42.700;23.360;2023-04-25T09:04:26;10.45;;;9.55;;
3095;SDS011;1558;42.700;23.360;2023-04-25T09:06:54;11.00;;;9.90;;
3095;SDS011;1558;42.700;23.360;2023-04-25T09:09:23;13.53;;;12.10;;
3095;SDS011;1558;42.700;23.360;2023-04-25T09:11:51;12.43;;;11.20;;
3095;SDS011;1558;42.700;23.360;2023-04-25T09:14:22;8.77;;;7.97;;
3095;SDS011;1558;42.700;23.360;2023-04-25T09:17:00;7.83;;;7.20;;
3095;SDS011;1558;42.700;23.360;2023-04-25T09:19:32;8.43;;;7.63;;
3095;SDS011;1558;42.700;23.360;2023-04-25T09:22:04;6.75;;;6.25;;
3095;SDS011;1558;42.700;23.360;2023-04-25T09:24:33;8.02;;;6.18;;
3095;SDS011;1558;42.700;23.360;2023-04-25T09:27:04;8.55;;;7.63;;
3095;SDS011;1558;42.700;23.360;2023-04-25T09:29:33;6.70;;;6.20;;
3095;SDS011;1558;42.700;23.360;2023-04-25T09:32:15;6.50;;;5.82;;
3095;SDS011;1558;42.700;23.360;2023-04-25T09:34:46;8.63;;;7.03;;
3095;SDS011;1558;42.700;23.360;2023-04-25T09:37:17;7.37;;;6.47;;
3095;SDS011;1558;42.700;23.360;2023-04-25T09:39:47;7.37;;;6.77;;
3095;SDS011;1558;42.700;23.360;2023-04-25T09:42:15;6.00;;;5.43;;
3095;SDS011;1558;42.700;23.360;2023-04-25T09:44:44;6.07;;;5.57;;
3095;SDS011;1558;42.700;23.360;2023-04-25T09:47:14;5.82;;;5.28;;
3095;SDS011;1558;42.700;23.360;2023-04-25T09:49:44;6.10;;;5.60;;
3095;SDS011;1558;42.700;23.360;2023-04-25T09:52:15;10.68;;;5.60;;
3095;SDS011;1558;42.700;23.360;2023-04-25T09:54:44;7.28;;;5.22;;
3095;SDS011;1558;42.700;23.360;2023-04-25T09:57:13;8.80;;;5.60;;
3095;SDS011;1558;42.700;23.360;2023-04-25T09:59:43;9.98;;;6.10;;
3095;SDS011;1558;42.700;23.360;2023-04-25T10:02:12;8.18;;;5.60;;
3095;SDS011;1558;42.700;23.360;2023-04-25T10:04:44;10.00;;;5.57;;
3095;SDS011;1558;42.700;23.360;2023-04-25T10:07:18;5.72;;;4.88;;
3095;SDS011;1558;42.700;23.360;2023-04-25T10:09:47;4.50;;;4.10;;
3095;SDS011;1558;42.700;23.360;2023-04-25T10:12:17;5.82;;;3.88;;
3095;SDS011;1558;42.700;23.360;2023-04-25T10:14:46;8.68;;;5.03;;
3095;SDS011;1558;42.700;23.360;2023-04-25T10:17:16;9.40;;;5.25;;
3095;SDS011;1558;42.700;23.360;2023-04-25T10:19:47;6.78;;;4.57;;
3095;SDS011;1558;42.700;23.360;2023-04-25T10:22:17;7.28;;;4.00;;
3095;SDS011;1558;42.700;23.360;2023-04-25T10:24:50;4.38;;;3.40;;
3095;SDS011;1558;42.700;23.360;2023-04-25T10:27:19;6.13;;;3.80;;
3095;SDS011;1558;42.700;23.360;2023-04-25T10:29:52;6.13;;;4.43;;
3095;SDS011;1558;42.700;23.360;2023-04-25T10:32:31;1.00;;;0.93;;
3095;SDS011;1558;42.700;23.360;2023-04-25T10:35:09;0.90;;;0.90;;
3095;SDS011;1558;42.700;23.360;2023-04-25T10:37:38;2.53;;;1.90;;
3095;SDS011;1558;42.700;23.360;2023-04-25T10:40:09;0.97;;;0.97;;
3095;SDS011;1558;42.700;23.360;2023-04-25T10:42:38;1.03;;;0.93;;
3095;SDS011;1558;42.700;23.360;2023-04-25T10:45:09;1.93;;;0.77;;
3095;SDS011;1558;42.700;23.360;2023-04-25T10:47:43;1.00;;;1.00;;
3095;SDS011;1558;42.700;23.360;2023-04-25T10:50:13;1.00;;;1.00;;
3095;SDS011;1558;42.700;23.360;2023-04-25T10:52:42;0.87;;;0.80;;
3095;SDS011;1558;42.700;23.360;2023-04-25T10:55:12;0.80;;;0.80;;
3095;SDS011;1558;42.700;23.360;2023-04-25T10:57:40;1.05;;;1.05;;
3095;SDS011;1558;42.700;23.360;2023-04-25T11:00:11;1.60;;;1.50;;
3095;SDS011;1558;42.700;23.360;2023-04-25T11:02:44;0.70;;;0.70;;
3095;SDS011;1558;42.700;23.360;2023-04-25T11:05:23;1.27;;;1.13;;
3095;SDS011;1558;42.700;23.360;2023-04-25T11:07:58;1.00;;;0.98;;
3095;SDS011;1558;42.700;23.360;2023-04-25T11:10:33;0.90;;;0.90;;
3095;SDS011;1558;42.700;23.360;2023-04-25T11:13:02;1.30;;;1.20;;
3095;SDS011;1558;42.700;23.360;2023-04-25T11:15:32;1.10;;;1.08;;
3095;SDS011;1558;42.700;23.360;2023-04-25T11:18:03;1.27;;;1.13;;
3095;SDS011;1558;42.700;23.360;2023-04-25T11:20:31;2.78;;;2.38;;
3095;SDS011;1558;42.700;23.360;2023-04-25T11:22:59;5.07;;;2.40;;
3095;SDS011;1558;42.700;23.360;2023-04-25T11:25:32;17.45;;;4.10;;
3095;SDS011;1558;42.700;23.360;2023-04-25T11:28:04;9.27;;;3.40;;
3095;SDS011;1558;42.700;23.360;2023-04-25T11:30:32;1.80;;;1.70;;
3095;SDS011;1558;42.700;23.360;2023-04-25T11:33:00;5.50;;;2.70;;
3095;SDS011;1558;42.700;23.360;2023-04-25T11:35:31;6.55;;;2.38;;
3095;SDS011;1558;42.700;23.360;2023-04-25T11:38:00;7.60;;;2.90;;
3095;SDS011;1558;42.700;23.360;2023-04-25T11:40:29;3.60;;;2.10;;
3095;SDS011;1558;42.700;23.360;2023-04-25T11:42:59;6.25;;;2.50;;
3095;SDS011;1558;42.700;23.360;2023-04-25T11:45:28;4.00;;;2.28;;
3095;SDS011;1558;42.700;23.360;2023-04-25T11:47:57;2.03;;;1.52;;
3095;SDS011;1558;42.700;23.360;2023-04-25T11:50:25;2.90;;;1.97;;
3095;SDS011;1558;42.700;23.360;2023-04-25T11:52:57;4.03;;;1.83;;
3095;SDS011;1558;42.700;23.360;2023-04-25T11:55:25;2.20;;;1.67;;
3095;SDS011;1558;42.700;23.360;2023-04-25T11:57:53;4.40;;;1.70;;
3095;SDS011;1558;42.700;23.360;2023-04-25T12:00:22;2.80;;;1.67;;
3095;SDS011;1558;42.700;23.360;2023-04-25T12:02:52;1.83;;;1.73;;
3095;SDS011;1558;42.700;23.360;2023-04-25T12:05:23;1.97;;;1.77;;
3095;SDS011;1558;42.700;23.360;2023-04-25T12:08:10;2.65;;;1.85;;
3095;SDS011;1558;42.700;23.360;2023-04-25T12:10:40;1.50;;;1.40;;
3095;SDS011;1558;42.700;23.360;2023-04-25T12:13:19;1.83;;;1.58;;
3095;SDS011;1558;42.700;23.360;2023-04-25T12:15:49;2.47;;;1.30;;
3095;SDS011;1558;42.700;23.360;2023-04-25T12:18:19;1.90;;;1.70;;
3095;SDS011;1558;42.700;23.360;2023-04-25T12:20:48;1.35;;;1.20;;
3095;SDS011;1558;42.700;23.360;2023-04-25T12:23:20;1.37;;;1.20;;
3095;SDS011;1558;42.700;23.360;2023-04-25T12:25:53;1.30;;;1.20;;
3095;SDS011;1558;42.700;23.360;2023-04-25T12:28:22;1.50;;;1.40;;
3095;SDS011;1558;42.700;23.360;2023-04-25T12:30:57;1.90;;;1.27;;
3095;SDS011;1558;42.700;23.360;2023-04-25T12:33:28;1.30;;;1.20;;
3095;SDS011;1558;42.700;23.360;2023-04-25T12:35:57;2.37;;;1.93;;
3095;SDS011;1558;42.700;23.360;2023-04-25T12:38:28;6.13;;;2.57;;
3095;SDS011;1558;42.700;23.360;2023-04-25T12:40:57;5.33;;;2.63;;
3095;SDS011;1558;42.700;23.360;2023-04-25T12:43:26;1.83;;;1.43;;
3095;SDS011;1558;42.700;23.360;2023-04-25T12:45:54;1.07;;;0.50;;
3095;SDS011;1558;42.700;23.360;2023-04-25T12:48:23;0.90;;;0.90;;
3095;SDS011;1558;42.700;23.360;2023-04-25T12:50:51;0.90;;;0.90;;
3095;SDS011;1558;42.700;23.360;2023-04-25T12:53:20;0.60;;;0.60;;
3095;SDS011;1558;42.700;23.360;2023-04-25T12:55:54;0.60;;;0.60;;
3095;SDS011;1558;42.700;23.360;2023-04-25T12:58:22;0.60;;;0.60;;
3095;SDS011;1558;42.700;23.360;2023-04-25T13:00:51;0.70;;;0.70;;
3095;SDS011;1558;42.700;23.360;2023-04-25T13:03:19;4.97;;;0.83;;
3095;SDS011;1558;42.700;23.360;2023-04-25T13:05:48;0.70;;;0.70;;
3095;SDS011;1558;42.700;23.360;2023-04-25T13:08:16;0.60;;;0.60;;
3095;SDS011;1558;42.700;23.360;2023-04-25T13:10:44;1.00;;;0.90;;
3095;SDS011;1558;42.700;23.360;2023-04-25T13:13:16;0.60;;;0.60;;
3095;SDS011;1558;42.700;23.360;2023-04-25T13:15:44;0.70;;;0.70;;
3095;SDS011;1558;42.700;23.360;2023-04-25T13:18:12;0.60;;;0.60;;
3095;SDS011;1558;42.700;23.360;2023-04-25T13:20:41;1.00;;;1.00;;
3095;SDS011;1558;42.700;23.360;2023-04-25T13:23:09;0.60;;;0.53;;
3095;SDS011;1558;42.700;23.360;2023-04-25T13:25:37;0.60;;;0.60;;
3095;SDS011;1558;42.700;23.360;2023-04-25T13:28:04;0.47;;;0.47;;
3095;SDS011;1558;42.700;23.360;2023-04-25T13:30:34;0.67;;;0.53;;
3095;SDS011;1558;42.700;23.360;2023-04-25T13:33:02;0.67;;;0.67;;
3095;SDS011;1558;42.700;23.360;2023-04-25T13:35:33;0.87;;;0.87;;
3095;SDS011;1558;42.700;23.360;2023-04-25T13:38:02;0.60;;;0.60;;
3095;SDS011;1558;42.700;23.360;2023-04-25T13:40:31;0.80;;;0.77;;
3095;SDS011;1558;42.700;23.360;2023-04-25T13:42:59;1.30;;;1.20;;
3095;SDS011;1558;42.700;23.360;2023-04-25T13:45:28;0.87;;;0.87;;
3095;SDS011;1558;42.700;23.360;2023-04-25T13:48:00;0.77;;;0.77;;
3095;SDS011;1558;42.700;23.360;2023-04-25T13:50:29;1.00;;;1.00;;
3095;SDS011;1558;42.700;23.360;2023-04-25T13:52:57;0.90;;;0.90;;
3095;SDS011;1558;42.700;23.360;2023-04-25T13:55:25;0.63;;;0.63;;
3095;SDS011;1558;42.700;23.360;2023-04-25T13:57:53;0.80;;;0.80;;
3095;SDS011;1558;42.700;23.360;2023-04-25T14:00:21;0.93;;;0.93;;
3095;SDS011;1558;42.700;23.360;2023-04-25T14:02:50;1.97;;;1.43;;
3095;SDS011;1558;42.700;23.360;2023-04-25T14:05:19;1.13;;;1.03;;
3095;SDS011;1558;42.700;23.360;2023-04-25T14:07:47;0.90;;;0.90;;
3095;SDS011;1558;42.700;23.360;2023-04-25T14:10:15;0.60;;;0.60;;
3095;SDS011;1558;42.700;23.360;2023-04-25T14:12:43;0.70;;;0.70;;
3095;SDS011;1558;42.700;23.360;2023-04-25T14:15:12;0.90;;;0.70;;
3095;SDS011;1558;42.700;23.360;2023-04-25T14:17:40;1.13;;;0.97;;
3095;SDS011;1558;42.700;23.360;2023-04-25T14:20:08;0.53;;;0.53;;
3095;SDS011;1558;42.700;23.360;2023-04-25T14:22:39;1.87;;;0.87;;
3095;SDS011;1558;42.700;23.360;2023-04-25T14:25:10;0.70;;;0.70;;
3095;SDS011;1558;42.700;23.360;2023-04-25T14:27:38;0.50;;;0.50;;
3095;SDS011;1558;42.700;23.360;2023-04-25T14:30:06;0.50;;;0.50;;
3095;SDS011;1558;42.700;23.360;2023-04-25T14:32:36;0.70;;;0.70;;
3095;SDS011;1558;42.700;23.360;2023-04-25T14:35:04;0.40;;;0.40;;
3095;SDS011;1558;42.700;23.360;2023-04-25T14:37:33;0.60;;;0.60;;
3095;SDS011;1558;42.700;23.360;2023-04-25T14:40:03;0.80;;;0.80;;
3095;SDS011;1558;42.700;23.360;2023-04-25T14:42:33;0.57;;;0.57;;
3095;SDS011;1558;42.700;23.360;2023-04-25T14:45:02;0.60;;;0.60;;
3095;SDS011;1558;42.700;23.360;2023-04-25T14:47:30;0.70;;;0.70;;
3095;SDS011;1558;42.700;23.360;2023-04-25T14:49:58;0.67;;;0.67;;
3095;SDS011;1558;42.700;23.360;2023-04-25T14:52:30;1.17;;;0.77;;
3095;SDS011;1558;42.700;23.360;2023-04-25T14:55:12;0.93;;;0.80;;
3095;SDS011;1558;42.700;23.360;2023-04-25T14:57:42;1.47;;;0.60;;
3095;SDS011;1558;42.700;23.360;2023-04-25T15:00:11;0.80;;;0.80;;
3095;SDS011;1558;42.700;23.360;2023-04-25T15:02:42;0.73;;;0.73;;
3095;SDS011;1558;42.700;23.360;2023-04-25T15:05:10;0.43;;;0.43;;
3095;SDS011;1558;42.700;23.360;2023-04-25T15:07:38;1.37;;;1.20;;
3095;SDS011;1558;42.700;23.360;2023-04-25T15:10:10;0.80;;;0.80;;
3095;SDS011;1558;42.700;23.360;2023-04-25T15:12:40;0.60;;;0.60;;